Terminal Aerodrome Forecast
Issued by NWS Grand Forks, ND

Home | Current Version | Previous Version | Text Only | Print | Product List | Glossary Off
Versions: 1 2 3 4 5 6 7 8 9 10 11 12 13 14

000
FTUS43 KFGF 200520
TAFFAR
TAF
KFAR 200520Z 2006/2106 19009G14KT P6SM SCT250
     FM200700 22009KT P6SM SCT200
     FM200900 30008KT P6SM FEW250
     FM210100 33004KT P6SM FEW130 FEW250=

USA.gov is the U.S. government's official web portal to all federal, state and local government web resources and services.